Time;durP1;ratioP1;P1;durP2;ratioP2;P2;SDS_P1;SDS_P2;PMS_P1;PMS_P2;Temp;Humidity;BMP_temperature;BMP_pressure;BME280_temperature;BME280_humidity;BME280_pressure;Samples;Min_cycle;Max_cycle;Signal;HPM_P1;HPM_P2
2021/01/19 00:00:17;;;;;;;;;;;23.40;37.60;;;;;;1611125;73;1932;-66
2021/01/19 00:02:19;;;;;;;;;;;23.40;37.60;;;;;;1609806;73;679;-66
2021/01/19 00:04:21;;;;;;;;;;;23.40;37.50;;;;;;1610287;73;704;-65
2021/01/19 00:06:23;;;;;;;;;;;23.50;37.60;;;;;;1609388;73;795;-66
2021/01/19 00:08:25;;;;;;;;;;;23.40;37.40;;;;;;1611077;73;1087;-65
2021/01/19 00:10:27;;;;;;;;;;;23.40;37.40;;;;;;1587430;73;741;-65
2021/01/19 00:12:29;;;;;;;;;;;23.40;37.40;;;;;;1593181;73;718;-64
2021/01/19 00:14:31;;;;;;;;;;;23.40;37.60;;;;;;1602215;73;797;-66
2021/01/19 00:16:32;;;;;;;;;;;23.40;37.70;;;;;;1607336;73;1181;-66
2021/01/19 00:18:34;;;;;;;;;;;23.40;37.70;;;;;;1607629;73;815;-66
2021/01/19 00:20:36;;;;;;;;;;;23.30;38.10;;;;;;1608958;73;1945;-66
2021/01/19 00:22:38;;;;;;;;;;;23.20;37.90;;;;;;1607351;73;743;-66
2021/01/19 00:24:40;;;;;;;;;;;23.20;38.10;;;;;;1610100;73;759;-66
2021/01/19 00:26:42;;;;;;;;;;;23.20;38.00;;;;;;1610109;73;1139;-68
2021/01/19 00:28:44;;;;;;;;;;;23.30;37.90;;;;;;1605047;73;739;-67
2021/01/19 00:30:46;;;;;;;;;;;23.40;37.80;;;;;;1601999;73;703;-67
2021/01/19 00:32:47;;;;;;;;;;;23.40;37.70;;;;;;1604869;73;928;-66
2021/01/19 00:34:49;;;;;;;;;;;23.40;37.70;;;;;;1612731;73;807;-67
2021/01/19 00:36:51;;;;;;;;;;;23.30;37.70;;;;;;1608535;73;1143;-67
2021/01/19 00:38:53;;;;;;;;;;;23.30;37.80;;;;;;1607988;73;750;-65
2021/01/19 00:40:55;;;;;;;;;;;23.30;37.70;;;;;;1611042;73;1936;-65
2021/01/19 00:43:00;;;;;;;;;;;23.40;37.60;;;;;;1609787;73;716;-65
2021/01/19 00:45:02;;;;;;;;;;;23.30;37.60;;;;;;1588434;73;697;-66
2021/01/19 00:47:04;;;;;;;;;;;23.40;37.60;;;;;;1588555;73;1165;-65
2021/01/19 00:49:06;;;;;;;;;;;23.30;37.60;;;;;;1606780;73;773;-67
2021/01/19 00:51:08;;;;;;;;;;;23.40;37.50;;;;;;1606044;73;665;-65
2021/01/19 00:53:09;;;;;;;;;;;23.30;37.70;;;;;;1608093;73;654;-64
2021/01/19 00:55:12;;;;;;;;;;;23.30;37.60;;;;;;1610330;73;770;-63
2021/01/19 00:57:14;;;;;;;;;;;23.30;37.60;;;;;;1588831;73;1168;-63
2021/01/19 00:59:16;;;;;;;;;;;23.20;37.60;;;;;;1606881;73;728;-63
2021/01/19 01:01:18;;;;;;;;;;;23.30;37.80;;;;;;1603120;73;1940;-64
2021/01/19 01:03:19;;;;;;;;;;;23.30;37.90;;;;;;1608652;73;745;-67
2021/01/19 01:05:21;;;;;;;;;;;23.20;37.90;;;;;;1607157;73;715;-65
2021/01/19 01:07:23;;;;;;;;;;;23.20;37.90;;;;;;1606672;73;1145;-63
2021/01/19 01:09:25;;;;;;;;;;;23.20;37.90;;;;;;1608991;73;637;-65
2021/01/19 01:11:27;;;;;;;;;;;23.20;37.80;;;;;;1598259;73;757;-65
2021/01/19 01:13:29;;;;;;;;;;;23.30;37.80;;;;;;1599910;73;730;-65
2021/01/19 01:15:32;;;;;;;;;;;23.30;37.80;;;;;;1605594;73;709;-65
2021/01/19 01:17:36;;;;;;;;;;;23.30;37.80;;;;;;1598903;73;1108;-64
2021/01/19 01:19:38;;;;;;;;;;;23.30;37.80;;;;;;1597640;73;1267;-65
2021/01/19 01:21:40;;;;;;;;;;;23.30;37.80;;;;;;1597500;73;1936;-64
2021/01/19 01:23:42;;;;;;;;;;;23.40;37.70;;;;;;1606429;73;720;-64
2021/01/19 01:25:44;;;;;;;;;;;23.40;37.70;;;;;;1578976;73;1219;-65
2021/01/19 01:27:46;;;;;;;;;;;23.40;37.60;;;;;;1607142;73;1155;-65
2021/01/19 01:29:48;;;;;;;;;;;23.30;37.70;;;;;;1609033;73;615;-65
2021/01/19 01:31:50;;;;;;;;;;;23.40;37.60;;;;;;1608802;73;716;-66
2021/01/19 01:33:52;;;;;;;;;;;23.40;37.60;;;;;;1607864;73;1017;-66
2021/01/19 01:35:54;;;;;;;;;;;23.40;37.60;;;;;;1593056;73;733;-65
2021/01/19 01:37:56;;;;;;;;;;;23.40;37.60;;;;;;1607275;73;1136;-66
2021/01/19 01:39:57;;;;;;;;;;;23.40;37.70;;;;;;1594402;73;728;-65
2021/01/19 01:41:59;;;;;;;;;;;23.40;37.70;;;;;;1610727;73;1930;-65
2021/01/19 01:44:01;;;;;;;;;;;23.40;37.70;;;;;;1592626;73;795;-65
2021/01/19 01:46:03;;;;;;;;;;;23.40;37.60;;;;;;1610990;73;1048;-66
2021/01/19 01:48:05;;;;;;;;;;;23.40;37.60;;;;;;1609937;73;1077;-65
2021/01/19 01:50:09;;;;;;;;;;;23.40;37.50;;;;;;1609928;73;787;-66
2021/01/19 01:52:10;;;;;;;;;;;23.40;37.60;;;;;;1596713;73;713;-66
2021/01/19 01:54:12;;;;;;;;;;;23.40;37.60;;;;;;1587193;73;721;-64
2021/01/19 01:56:14;;;;;;;;;;;23.40;37.60;;;;;;1603794;73;764;-64
2021/01/19 01:58:16;;;;;;;;;;;23.40;37.60;;;;;;1605822;73;1139;-65
2021/01/19 02:00:18;;;;;;;;;;;23.40;37.60;;;;;;1598589;73;719;-64
2021/01/19 02:02:20;;;;;;;;;;;23.40;37.60;;;;;;1583573;73;1970;-63
2021/01/19 02:04:22;;;;;;;;;;;23.40;37.70;;;;;;1596834;73;710;-66
2021/01/19 02:06:24;;;;;;;;;;;23.40;37.70;;;;;;1595665;73;701;-65
2021/01/19 02:08:30;;;;;;;;;;;23.40;37.70;;;;;;1608488;73;1076;-64
2021/01/19 02:10:40;;;;;;;;;;;23.40;37.80;;;;;;1609987;73;1734;-64
2021/01/19 02:12:55;;;;;;;;;;;23.30;37.80;;;;;;1604364;73;817;-65
2021/01/19 02:15:01;;;;;;;;;;;23.30;37.80;;;;;;1592836;73;776;-65
2021/01/19 02:17:23;;;;;;;;;;;23.30;38.00;;;;;;1608082;73;1199;-65
2021/01/19 02:19:41;;;;;;;;;;;23.30;38.00;;;;;;1603538;73;1736;-64
2021/01/19 02:21:54;;;;;;;;;;;23.20;38.10;;;;;;1590742;73;1945;-62
2021/01/19 02:23:57;;;;;;;;;;;23.20;38.10;;;;;;1608150;73;1982;-63
2021/01/19 02:26:17;;;;;;;;;;;23.20;38.10;;;;;;1606901;73;1690;-64
2021/01/19 02:28:21;;;;;;;;;;;23.10;38.20;;;;;;1553782;75;1113;-63
2021/01/19 02:30:41;;;;;;;;;;;23.10;38.30;;;;;;1606861;73;706;-63
2021/01/19 02:33:03;;;;;;;;;;;23.10;38.40;;;;;;1608922;72;744;-64
2021/01/19 02:35:15;;;;;;;;;;;23.00;38.40;;;;;;1620328;72;663;-63
2021/01/19 02:37:21;;;;;;;;;;;23.00;38.40;;;;;;1624389;72;1150;-64
2021/01/19 02:39:28;;;;;;;;;;;23.10;38.60;;;;;;1627917;72;742;-64
2021/01/19 02:41:30;;;;;;;;;;;23.10;38.70;;;;;;1618543;72;1896;-65
2021/01/19 02:43:32;;;;;;;;;;;23.10;38.60;;;;;;1616690;72;733;-65
2021/01/19 02:45:34;;;;;;;;;;;23.10;38.40;;;;;;1620999;72;787;-64
2021/01/19 02:47:36;;;;;;;;;;;23.20;38.30;;;;;;1626768;72;1130;-64
2021/01/19 02:49:37;;;;;;;;;;;23.30;38.30;;;;;;1628039;72;809;-64
2021/01/19 02:51:39;;;;;;;;;;;23.20;38.10;;;;;;1627858;72;697;-64
2021/01/19 02:53:41;;;;;;;;;;;23.30;38.10;;;;;;1627566;72;795;-65
2021/01/19 02:55:43;;;;;;;;;;;23.30;38.00;;;;;;1627925;72;686;-65
2021/01/19 02:57:47;;;;;;;;;;;23.20;38.10;;;;;;1626478;72;1176;-66
2021/01/19 02:59:56;;;;;;;;;;;23.20;38.10;;;;;;1614676;72;1026;-67
2021/01/19 03:01:59;;;;;;;;;;;23.20;38.20;;;;;;1625596;72;1936;-66
2021/01/19 03:04:01;;;;;;;;;;;23.10;38.30;;;;;;1625857;72;1706;-66
2021/01/19 03:06:04;;;;;;;;;;;23.20;38.20;;;;;;1627553;72;730;-68
2021/01/19 03:08:07;;;;;;;;;;;23.10;38.20;;;;;;1625899;72;1163;-67
2021/01/19 03:10:09;;;;;;;;;;;23.20;38.20;;;;;;1625920;72;772;-68
2021/01/19 03:12:13;;;;;;;;;;;23.20;38.10;;;;;;1627944;72;773;-67
2021/01/19 03:14:15;;;;;;;;;;;23.20;38.10;;;;;;1627801;72;717;-65
2021/01/19 03:16:18;;;;;;;;;;;23.20;38.00;;;;;;1615094;72;787;-66
2021/01/19 03:18:20;;;;;;;;;;;23.20;37.90;;;;;;1625612;72;1131;-65
2021/01/19 03:20:25;;;;;;;;;;;23.30;38.00;;;;;;1627705;72;722;-66
2021/01/19 03:22:26;;;;;;;;;;;23.20;38.10;;;;;;1623064;72;1967;-65
2021/01/19 03:24:28;;;;;;;;;;;23.30;38.10;;;;;;1627804;72;700;-65
2021/01/19 03:26:29;;;;;;;;;;;23.20;38.10;;;;;;1622241;72;723;-65
2021/01/19 03:28:31;;;;;;;;;;;23.20;38.10;;;;;;1627893;72;724;-65
2021/01/19 03:30:33;;;;;;;;;;;23.20;38.10;;;;;;1622980;72;710;-65
2021/01/19 03:32:35;;;;;;;;;;;23.20;38.30;;;;;;1619467;72;805;-68
2021/01/19 03:34:37;;;;;;;;;;;23.20;38.30;;;;;;1628190;72;712;-64
2021/01/19 03:36:39;;;;;;;;;;;23.20;38.60;;;;;;1620561;73;1185;-62
2021/01/19 03:38:41;;;;;;;;;;;23.20;38.50;;;;;;1627167;72;816;-62
2021/01/19 03:40:42;;;;;;;;;;;23.30;38.60;;;;;;1625846;72;709;-63
2021/01/19 03:42:44;;;;;;;;;;;23.30;38.60;;;;;;1627115;72;1940;-65
2021/01/19 03:44:46;;;;;;;;;;;23.30;38.50;;;;;;1627682;73;880;-65
2021/01/19 03:46:48;;;;;;;;;;;23.30;38.70;;;;;;1622479;72;1170;-65
2021/01/19 03:48:50;;;;;;;;;;;23.30;38.70;;;;;;1627770;72;671;-67
2021/01/19 03:50:52;;;;;;;;;;;23.20;39.10;;;;;;1627789;72;693;-66
2021/01/19 03:52:54;;;;;;;;;;;23.20;39.60;;;;;;1625613;72;731;-65
2021/01/19 03:54:55;;;;;;;;;;;23.10;40.00;;;;;;1623766;72;763;-65
2021/01/19 03:56:57;;;;;;;;;;;23.10;40.20;;;;;;1625661;72;1161;-65
2021/01/19 03:58:59;;;;;;;;;;;23.10;40.30;;;;;;1625706;72;708;-64
2021/01/19 04:01:01;;;;;;;;;;;23.00;40.50;;;;;;1627450;72;746;-65
2021/01/19 04:03:03;;;;;;;;;;;23.00;40.70;;;;;;1627350;72;1963;-65
2021/01/19 04:05:05;;;;;;;;;;;23.00;40.80;;;;;;1622674;72;658;-65
2021/01/19 04:07:07;;;;;;;;;;;23.00;40.70;;;;;;1627586;72;1158;-65
2021/01/19 04:09:09;;;;;;;;;;;23.00;41.30;;;;;;1627711;72;680;-65
2021/01/19 04:11:11;;;;;;;;;;;22.90;41.40;;;;;;1626602;72;703;-64
2021/01/19 04:13:13;;;;;;;;;;;22.90;41.50;;;;;;1627633;72;736;-64
2021/01/19 04:15:15;;;;;;;;;;;22.90;41.80;;;;;;1626604;72;799;-63
2021/01/19 04:17:17;;;;;;;;;;;22.90;42.00;;;;;;1627855;72;1144;-64
2021/01/19 04:19:19;;;;;;;;;;;22.80;42.00;;;;;;1627985;72;705;-64
2021/01/19 04:21:23;;;;;;;;;;;22.80;42.30;;;;;;1623617;72;1921;-63
2021/01/19 04:23:24;;;;;;;;;;;22.80;42.40;;;;;;1625090;72;1587;-63
2021/01/19 04:25:26;;;;;;;;;;;22.80;42.50;;;;;;1627661;72;1027;-62
2021/01/19 04:27:28;;;;;;;;;;;22.80;42.60;;;;;;1623502;73;1123;-64
2021/01/19 04:29:30;;;;;;;;;;;22.80;42.60;;;;;;1624501;72;1059;-64
2021/01/19 04:31:32;;;;;;;;;;;22.80;42.60;;;;;;1623459;72;735;-63
2021/01/19 04:33:33;;;;;;;;;;;22.90;42.80;;;;;;1625642;72;703;-63
2021/01/19 04:35:35;;;;;;;;;;;22.80;42.80;;;;;;1625712;72;707;-63
2021/01/19 04:37:37;;;;;;;;;;;22.80;42.80;;;;;;1626595;73;1178;-62
2021/01/19 04:39:39;;;;;;;;;;;22.80;42.80;;;;;;1627864;72;695;-63
2021/01/19 04:41:41;;;;;;;;;;;22.90;42.90;;;;;;1626790;72;1928;-63
2021/01/19 04:43:43;;;;;;;;;;;22.90;43.10;;;;;;1623612;72;712;-63
2021/01/19 04:45:45;;;;;;;;;;;22.90;43.10;;;;;;1627867;72;832;-64
2021/01/19 04:47:47;;;;;;;;;;;22.80;43.00;;;;;;1624755;72;1134;-62
2021/01/19 04:49:48;;;;;;;;;;;22.90;43.10;;;;;;1625334;72;714;-63
2021/01/19 04:51:50;;;;;;;;;;;22.90;43.20;;;;;;1622471;72;942;-64
2021/01/19 04:54:05;;;;;;;;;;;22.80;43.00;;;;;;1624356;72;729;-64
2021/01/19 04:56:06;;;;;;;;;;;22.90;43.20;;;;;;1623639;72;739;-63
2021/01/19 04:58:08;;;;;;;;;;;22.90;43.40;;;;;;1624183;72;1115;-64
2021/01/19 05:00:11;;;;;;;;;;;22.90;43.30;;;;;;1626349;73;729;-63
2021/01/19 05:02:14;;;;;;;;;;;22.90;43.40;;;;;;1624267;73;1935;-63
2021/01/19 05:04:28;;;;;;;;;;;22.90;43.40;;;;;;1622748;72;1801;-64
2021/01/19 05:06:37;;;;;;;;;;;22.90;43.40;;;;;;1620155;72;602;-64
2021/01/19 05:08:42;;;;;;;;;;;22.90;43.50;;;;;;1623391;72;722;-62
2021/01/19 05:10:48;;;;;;;;;;;22.90;43.60;;;;;;1625536;72;922;-64
2021/01/19 05:12:51;;;;;;;;;;;22.90;43.60;;;;;;1618618;72;1445;-65
2021/01/19 05:14:53;;;;;;;;;;;22.90;43.70;;;;;;1626848;72;725;-64
2021/01/19 05:16:55;;;;;;;;;;;22.90;43.50;;;;;;1624058;72;1131;-63
2021/01/19 05:18:57;;;;;;;;;;;23.00;43.60;;;;;;1621457;72;754;-65
2021/01/19 05:21:00;;;;;;;;;;;23.00;43.60;;;;;;1624993;72;765;-64
2021/01/19 05:23:02;;;;;;;;;;;23.00;43.60;;;;;;1626616;72;1917;-63
2021/01/19 05:25:04;;;;;;;;;;;23.00;43.90;;;;;;1627366;72;710;-64
2021/01/19 05:27:06;;;;;;;;;;;22.90;43.90;;;;;;1625529;72;1177;-64
2021/01/19 05:29:08;;;;;;;;;;;23.00;43.80;;;;;;1621768;72;750;-63
2021/01/19 05:31:18;;;;;;;;;;;23.00;43.80;;;;;;1622471;72;805;-63
2021/01/19 05:33:20;;;;;;;;;;;23.00;44.00;;;;;;1627584;72;702;-63
2021/01/19 05:35:22;;;;;;;;;;;23.00;43.80;;;;;;1623867;72;805;-64
2021/01/19 05:37:24;;;;;;;;;;;23.00;43.90;;;;;;1624196;72;1151;-62
2021/01/19 05:39:26;;;;;;;;;;;23.00;43.90;;;;;;1625863;72;891;-63
2021/01/19 05:41:35;;;;;;;;;;;23.00;44.00;;;;;;1625599;72;1084;-63
2021/01/19 05:43:36;;;;;;;;;;;23.00;43.90;;;;;;1625058;72;1930;-62
2021/01/19 05:45:38;;;;;;;;;;;23.00;43.90;;;;;;1620690;72;725;-63
2021/01/19 05:47:40;;;;;;;;;;;23.10;44.20;;;;;;1621368;72;1198;-64
2021/01/19 05:49:42;;;;;;;;;;;23.00;44.00;;;;;;1625156;72;729;-63
2021/01/19 05:51:44;;;;;;;;;;;23.10;44.30;;;;;;1626755;72;821;-62
2021/01/19 05:53:48;;;;;;;;;;;23.10;44.20;;;;;;1626877;72;764;-62
2021/01/19 05:55:50;;;;;;;;;;;23.10;44.20;;;;;;1621914;72;1761;-63
2021/01/19 05:57:52;;;;;;;;;;;23.10;44.30;;;;;;1609631;72;1155;-63
2021/01/19 05:59:54;;;;;;;;;;;23.10;44.20;;;;;;1627026;72;714;-64
2021/01/19 06:01:57;;;;;;;;;;;23.10;44.30;;;;;;1617264;72;1930;-64
2021/01/19 06:03:59;;;;;;;;;;;23.10;44.40;;;;;;1627283;72;801;-63
2021/01/19 06:06:03;;;;;;;;;;;23.10;44.20;;;;;;1624619;72;679;-64
2021/01/19 06:08:05;;;;;;;;;;;23.10;44.40;;;;;;1625276;72;1751;-64
2021/01/19 06:10:09;;;;;;;;;;;23.10;44.30;;;;;;1630816;72;724;-64
2021/01/19 06:12:10;;;;;;;;;;;23.20;44.30;;;;;;1621060;73;983;-64
2021/01/19 06:14:14;;;;;;;;;;;23.20;44.30;;;;;;1627309;72;706;-64
2021/01/19 06:16:16;;;;;;;;;;;23.10;44.40;;;;;;1619406;72;888;-64
2021/01/19 06:18:18;;;;;;;;;;;23.20;44.30;;;;;;1624939;72;1107;-64
2021/01/19 06:20:20;;;;;;;;;;;23.10;44.30;;;;;;1627612;72;772;-64
2021/01/19 06:22:26;;;;;;;;;;;23.10;44.20;;;;;;1624033;72;1931;-64
2021/01/19 06:24:33;;;;;;;;;;;23.20;44.20;;;;;;1621630;73;1517;-64
2021/01/19 06:26:36;;;;;;;;;;;23.20;44.20;;;;;;1620266;72;1134;-64
2021/01/19 06:28:44;;;;;;;;;;;23.20;44.30;;;;;;1626990;73;1088;-63
2021/01/19 06:30:46;;;;;;;;;;;23.20;44.50;;;;;;1617988;73;735;-64
2021/01/19 06:32:48;;;;;;;;;;;23.20;44.40;;;;;;1636311;72;766;-64
2021/01/19 06:34:50;;;;;;;;;;;23.20;44.40;;;;;;1633586;72;687;-64
2021/01/19 06:36:52;;;;;;;;;;;23.20;44.40;;;;;;1627329;72;1107;-63
2021/01/19 06:38:54;;;;;;;;;;;23.20;44.40;;;;;;1623356;72;696;-64
2021/01/19 06:40:56;;;;;;;;;;;23.30;44.40;;;;;;1622233;72;781;-64
2021/01/19 06:42:59;;;;;;;;;;;23.30;44.40;;;;;;1623193;72;1947;-64
2021/01/19 06:45:02;;;;;;;;;;;23.20;44.30;;;;;;1623803;72;673;-65
2021/01/19 06:47:04;;;;;;;;;;;23.20;44.10;;;;;;1624833;72;1686;-63
2021/01/19 06:49:06;;;;;;;;;;;23.30;43.40;;;;;;1627642;73;718;-65
2021/01/19 06:51:10;;;;;;;;;;;23.20;43.40;;;;;;1628019;72;690;-64
2021/01/19 06:53:13;;;;;;;;;;;23.30;41.90;;;;;;1621696;72;1682;-63
2021/01/19 06:55:17;;;;;;;;;;;23.30;42.20;;;;;;1614024;72;712;-63
2021/01/19 06:57:21;;;;;;;;;;;23.20;42.30;;;;;;1623932;72;1780;-63
2021/01/19 06:59:24;;;;;;;;;;;23.30;42.70;;;;;;1619535;72;1664;-64
2021/01/19 07:01:27;;;;;;;;;;;23.20;42.80;;;;;;1623841;72;1801;-63
2021/01/19 07:03:29;;;;;;;;;;;23.20;43.00;;;;;;1625349;72;1901;-63
2021/01/19 07:05:31;;;;;;;;;;;23.20;43.20;;;;;;1608279;72;793;-63
2021/01/19 07:07:36;;;;;;;;;;;23.20;43.40;;;;;;1614207;72;1155;-63
2021/01/19 07:09:56;;;;;;;;;;;23.20;43.40;;;;;;1625073;72;829;-63
2021/01/19 07:11:59;;;;;;;;;;;23.20;43.60;;;;;;1556065;75;760;-63
2021/01/19 07:14:11;;;;;;;;;;;23.10;43.50;;;;;;1571592;74;712;-64
2021/01/19 07:16:13;;;;;;;;;;;23.20;43.70;;;;;;1610145;73;941;-65
2021/01/19 07:18:18;;;;;;;;;;;23.20;43.70;;;;;;1610402;73;1139;-65
2021/01/19 07:20:25;;;;;;;;;;;23.20;43.70;;;;;;1594453;73;688;-66
2021/01/19 07:22:46;;;;;;;;;;;23.20;43.80;;;;;;1600553;73;1924;-66
2021/01/19 07:24:48;;;;;;;;;;;23.20;43.90;;;;;;1600545;73;1823;-65
2021/01/19 07:26:50;;;;;;;;;;;23.20;43.90;;;;;;1612183;73;1163;-66
2021/01/19 07:28:52;;;;;;;;;;;23.20;44.00;;;;;;1603641;73;709;-66
2021/01/19 07:30:54;;;;;;;;;;;23.20;43.90;;;;;;1621150;72;732;-66
2021/01/19 07:32:56;;;;;;;;;;;23.20;44.00;;;;;;1618489;72;688;-66
2021/01/19 07:35:00;;;;;;;;;;;23.20;43.90;;;;;;1628102;72;757;-67
2021/01/19 07:37:02;;;;;;;;;;;23.30;44.00;;;;;;1628075;72;1154;-67
2021/01/19 07:39:11;;;;;;;;;;;23.30;43.90;;;;;;1625457;72;715;-65
2021/01/19 07:41:13;;;;;;;;;;;23.20;44.00;;;;;;1616818;72;679;-66
2021/01/19 07:43:17;;;;;;;;;;;23.30;44.30;;;;;;1620424;72;1942;-65
2021/01/19 07:45:31;;;;;;;;;;;23.20;44.00;;;;;;1625743;73;1087;-62
2021/01/19 07:47:34;;;;;;;;;;;23.20;44.20;;;;;;1623532;72;1153;-65
2021/01/19 07:49:36;;;;;;;;;;;23.20;44.30;;;;;;1627926;72;724;-65
2021/01/19 07:51:44;;;;;;;;;;;23.20;44.30;;;;;;1619220;72;743;-66
2021/01/19 07:53:49;;;;;;;;;;;23.20;44.40;;;;;;1620365;72;879;-65
2021/01/19 07:55:51;;;;;;;;;;;23.20;44.50;;;;;;1620694;72;770;-65
2021/01/19 07:57:54;;;;;;;;;;;23.20;44.70;;;;;;1628221;72;1146;-64
2021/01/19 07:59:57;;;;;;;;;;;23.10;44.80;;;;;;1611127;72;789;-64
2021/01/19 08:01:59;;;;;;;;;;;23.10;44.70;;;;;;1619758;73;741;-65
2021/01/19 08:04:10;;;;;;;;;;;23.20;44.70;;;;;;1626769;72;1921;-64
2021/01/19 08:06:12;;;;;;;;;;;23.20;44.60;;;;;;1621612;72;682;-65
2021/01/19 08:08:15;;;;;;;;;;;23.20;44.70;;;;;;1624765;72;1139;-64
2021/01/19 08:10:20;;;;;;;;;;;23.20;44.70;;;;;;1627302;72;765;-64
2021/01/19 08:12:22;;;;;;;;;;;23.20;44.80;;;;;;1627439;72;860;-64
2021/01/19 08:14:25;;;;;;;;;;;23.20;44.80;;;;;;1623992;72;693;-64
2021/01/19 08:16:28;;;;;;;;;;;23.20;44.90;;;;;;1622257;72;1783;-65
2021/01/19 08:18:37;;;;;;;;;;;23.20;44.90;;;;;;1623944;72;1131;-63
2021/01/19 08:20:41;;;;;;;;;;;23.20;45.10;;;;;;1578316;73;1244;-61
2021/01/19 08:22:43;;;;;;;;;;;23.20;45.10;;;;;;1623767;72;1975;-62
2021/01/19 08:24:45;;;;;;;;;;;23.20;45.30;;;;;;1628299;72;769;-64
2021/01/19 08:26:47;;;;;;;;;;;23.20;45.20;;;;;;1611021;72;1139;-64
2021/01/19 08:28:48;;;;;;;;;;;23.20;45.20;;;;;;1619612;72;783;-64
2021/01/19 08:30:51;;;;;;;;;;;23.20;45.40;;;;;;1627934;72;788;-64
2021/01/19 08:32:54;;;;;;;;;;;23.20;45.30;;;;;;1628351;72;793;-64
2021/01/19 08:34:56;;;;;;;;;;;23.30;45.50;;;;;;1626173;72;1679;-64
2021/01/19 08:36:59;;;;;;;;;;;23.30;45.50;;;;;;1594415;74;1149;-64
2021/01/19 08:39:03;;;;;;;;;;;23.20;45.40;;;;;;1624584;73;736;-64
2021/01/19 08:41:06;;;;;;;;;;;23.30;45.40;;;;;;1614738;72;703;-64
2021/01/19 08:43:09;;;;;;;;;;;23.30;45.50;;;;;;1612598;72;1923;-63
2021/01/19 08:45:12;;;;;;;;;;;23.20;45.60;;;;;;1624927;73;779;-64
2021/01/19 08:47:13;;;;;;;;;;;23.20;45.50;;;;;;1624005;73;1135;-64
2021/01/19 08:49:16;;;;;;;;;;;23.30;45.60;;;;;;1624314;73;830;-65
2021/01/19 08:51:22;;;;;;;;;;;23.20;45.50;;;;;;1621825;72;838;-64
2021/01/19 08:53:24;;;;;;;;;;;23.20;45.50;;;;;;1628067;72;991;-65
2021/01/19 08:55:26;;;;;;;;;;;23.20;45.50;;;;;;1586592;73;1174;-65
2021/01/19 08:57:28;;;;;;;;;;;23.30;45.60;;;;;;1596179;73;1157;-64
2021/01/19 08:59:29;;;;;;;;;;;23.20;45.60;;;;;;1614042;72;774;-64
2021/01/19 09:01:31;;;;;;;;;;;23.20;45.90;;;;;;1628125;73;731;-66
2021/01/19 09:03:33;;;;;;;;;;;23.30;45.80;;;;;;1610428;72;1923;-65
2021/01/19 09:05:35;;;;;;;;;;;23.30;45.80;;;;;;1617106;72;757;-65
2021/01/19 09:07:37;;;;;;;;;;;23.30;45.90;;;;;;1627924;72;1142;-65
2021/01/19 09:09:40;;;;;;;;;;;23.30;45.80;;;;;;1634020;72;710;-64
2021/01/19 09:11:42;;;;;;;;;;;23.40;45.70;;;;;;1621679;72;1792;-66
2021/01/19 09:13:44;;;;;;;;;;;23.40;45.80;;;;;;1619856;73;695;-65
2021/01/19 09:15:46;;;;;;;;;;;23.30;45.70;;;;;;1624446;72;722;-64
2021/01/19 09:17:51;;;;;;;;;;;23.40;45.70;;;;;;1628351;72;1141;-64
2021/01/19 09:20:01;;;;;;;;;;;23.30;45.80;;;;;;1612938;72;715;-65
2021/01/19 09:22:02;;;;;;;;;;;23.30;45.80;;;;;;1608650;72;1700;-64
2021/01/19 09:24:06;;;;;;;;;;;23.40;45.60;;;;;;1607613;73;1936;-65
2021/01/19 09:26:08;;;;;;;;;;;23.30;45.70;;;;;;1615134;72;1843;-65
2021/01/19 09:28:10;;;;;;;;;;;23.40;45.80;;;;;;1628223;72;1095;-65
2021/01/19 09:30:13;;;;;;;;;;;23.30;45.80;;;;;;1622503;73;692;-66
2021/01/19 09:32:16;;;;;;;;;;;23.30;45.80;;;;;;1611326;72;754;-64
2021/01/19 09:34:20;;;;;;;;;;;23.40;45.80;;;;;;1618296;72;1775;-64
2021/01/19 09:36:22;;;;;;;;;;;23.30;45.70;;;;;;1634983;72;1104;-63
2021/01/19 09:38:24;;;;;;;;;;;23.40;45.70;;;;;;1623591;72;1107;-64
2021/01/19 09:40:30;;;;;;;;;;;23.40;45.90;;;;;;1626765;72;849;-63
2021/01/19 09:42:32;;;;;;;;;;;23.40;46.00;;;;;;1620316;72;714;-62
2021/01/19 09:44:33;;;;;;;;;;;23.40;46.00;;;;;;1624303;73;1933;-64
2021/01/19 09:46:35;;;;;;;;;;;23.40;45.90;;;;;;1627287;72;1182;-63
2021/01/19 09:48:37;;;;;;;;;;;23.50;46.30;;;;;;1626998;72;709;-63
2021/01/19 09:50:39;;;;;;;;;;;23.50;46.30;;;;;;1590635;73;856;-65
2021/01/19 09:52:45;;;;;;;;;;;23.50;46.70;;;;;;1622021;73;733;-65
2021/01/19 09:54:46;;;;;;;;;;;23.60;46.40;;;;;;1621677;72;768;-67
2021/01/19 09:56:55;;;;;;;;;;;23.50;46.10;;;;;;1626079;72;1131;-65
2021/01/19 09:59:06;;;;;;;;;;;23.50;44.60;;;;;;1620919;73;1100;-63
2021/01/19 10:01:08;;;;;;;;;;;23.50;43.00;;;;;;1634912;72;747;-64
2021/01/19 10:03:11;;;;;;;;;;;23.40;42.30;;;;;;1622459;72;741;-64
2021/01/19 10:05:13;;;;;;;;;;;23.40;42.80;;;;;;1627102;72;1798;-63
2021/01/19 10:07:15;;;;;;;;;;;23.40;42.10;;;;;;1626945;72;1098;-63
2021/01/19 10:09:23;;;;;;;;;;;23.30;42.20;;;;;;1622562;73;865;-63
2021/01/19 10:11:28;;;;;;;;;;;23.30;41.90;;;;;;1623321;72;688;-63
2021/01/19 10:13:31;;;;;;;;;;;23.30;41.80;;;;;;1626015;72;774;-62
2021/01/19 10:15:36;;;;;;;;;;;23.20;41.90;;;;;;1621825;73;870;-63
2021/01/19 10:17:37;;;;;;;;;;;23.20;41.70;;;;;;1625152;72;1452;-63
2021/01/19 10:19:39;;;;;;;;;;;23.20;41.50;;;;;;1626068;72;725;-63
2021/01/19 10:21:41;;;;;;;;;;;23.20;41.50;;;;;;1626407;72;738;-63
2021/01/19 10:23:43;;;;;;;;;;;23.10;41.50;;;;;;1592449;73;1935;-62
2021/01/19 10:25:45;;;;;;;;;;;23.20;41.50;;;;;;1581988;73;1216;-63
2021/01/19 10:27:46;;;;;;;;;;;23.10;41.50;;;;;;1571548;74;1125;-62
2021/01/19 10:29:49;;;;;;;;;;;23.10;41.50;;;;;;1614762;73;706;-64
2021/01/19 10:31:52;;;;;;;;;;;23.10;41.50;;;;;;1629735;72;759;-64
2021/01/19 10:33:57;;;;;;;;;;;23.10;41.40;;;;;;1624089;73;1842;-64
2021/01/19 10:36:00;;;;;;;;;;;23.10;41.40;;;;;;1603645;72;705;-63
2021/01/19 10:38:06;;;;;;;;;;;23.00;41.20;;;;;;1613090;72;1657;-63
2021/01/19 10:40:10;;;;;;;;;;;23.00;41.30;;;;;;1627754;73;749;-64
2021/01/19 10:42:15;;;;;;;;;;;23.10;41.50;;;;;;1626821;72;734;-62
2021/01/19 10:44:16;;;;;;;;;;;23.00;41.30;;;;;;1605448;72;1933;-64
2021/01/19 10:46:20;;;;;;;;;;;23.10;41.40;;;;;;1610309;72;777;-64
2021/01/19 10:48:22;;;;;;;;;;;23.10;41.50;;;;;;1619881;72;1190;-65
2021/01/19 10:50:29;;;;;;;;;;;23.00;41.30;;;;;;1625091;72;666;-65
2021/01/19 10:52:31;;;;;;;;;;;23.00;41.40;;;;;;1614084;72;669;-65
2021/01/19 10:54:32;;;;;;;;;;;23.00;41.30;;;;;;1618135;72;764;-65
2021/01/19 10:56:35;;;;;;;;;;;23.00;41.40;;;;;;1624331;72;1164;-65
2021/01/19 10:58:36;;;;;;;;;;;23.00;41.50;;;;;;1616836;72;737;-66
2021/01/19 11:00:38;;;;;;;;;;;23.00;41.50;;;;;;1593549;74;749;-64
2021/01/19 11:02:40;;;;;;;;;;;23.00;41.50;;;;;;1595755;74;688;-64
2021/01/19 11:04:42;;;;;;;;;;;23.00;41.60;;;;;;1598630;74;1946;-64
2021/01/19 11:06:44;;;;;;;;;;;23.00;41.50;;;;;;1596078;73;1124;-65
2021/01/19 11:08:46;;;;;;;;;;;23.00;41.70;;;;;;1598965;74;689;-64
2021/01/19 11:10:48;;;;;;;;;;;23.00;41.70;;;;;;1604804;73;933;-64
2021/01/19 11:12:51;;;;;;;;;;;23.00;41.70;;;;;;1607457;74;717;-64
2021/01/19 11:14:53;;;;;;;;;;;23.00;41.80;;;;;;1605178;73;774;-64
2021/01/19 11:16:55;;;;;;;;;;;23.00;41.80;;;;;;1605906;73;1116;-65
2021/01/19 11:19:00;;;;;;;;;;;23.00;41.80;;;;;;1598983;73;735;-65
2021/01/19 11:21:02;;;;;;;;;;;23.00;41.80;;;;;;1609914;73;725;-65
2021/01/19 11:23:04;;;;;;;;;;;23.00;41.90;;;;;;1603382;73;747;-63
2021/01/19 11:25:06;;;;;;;;;;;23.10;42.10;;;;;;1594611;73;1932;-62
2021/01/19 11:27:08;;;;;;;;;;;23.00;41.90;;;;;;1608281;73;1170;-65
2021/01/19 11:29:10;;;;;;;;;;;23.00;42.00;;;;;;1595110;73;742;-64
2021/01/19 11:31:12;;;;;;;;;;;23.00;42.10;;;;;;1628844;72;729;-63
2021/01/19 11:33:14;;;;;;;;;;;23.00;42.20;;;;;;1627261;72;716;-65
2021/01/19 11:35:16;;;;;;;;;;;23.00;42.30;;;;;;1623757;73;720;-63
2021/01/19 11:37:17;;;;;;;;;;;23.00;42.30;;;;;;1626634;72;1162;-64
2021/01/19 11:39:19;;;;;;;;;;;23.00;42.30;;;;;;1617570;72;780;-64
2021/01/19 11:41:22;;;;;;;;;;;23.00;42.30;;;;;;1615088;72;793;-65
2021/01/19 11:43:24;;;;;;;;;;;23.00;42.30;;;;;;1607901;72;732;-64
2021/01/19 11:45:27;;;;;;;;;;;23.00;42.30;;;;;;1617604;73;1930;-64
2021/01/19 11:47:29;;;;;;;;;;;23.00;42.30;;;;;;1628347;72;1137;-64
2021/01/19 11:49:31;;;;;;;;;;;23.00;42.30;;;;;;1618654;72;844;-63
2021/01/19 11:51:36;;;;;;;;;;;23.00;42.30;;;;;;1621675;72;684;-64
2021/01/19 11:53:38;;;;;;;;;;;23.00;42.20;;;;;;1624976;72;764;-64
2021/01/19 11:55:40;;;;;;;;;;;23.00;42.20;;;;;;1618130;72;931;-64
2021/01/19 11:57:42;;;;;;;;;;;23.00;42.20;;;;;;1622140;72;1158;-64
2021/01/19 11:59:44;;;;;;;;;;;23.00;42.20;;;;;;1613282;72;752;-64
2021/01/19 12:01:48;;;;;;;;;;;23.00;42.20;;;;;;1621727;72;747;-64
2021/01/19 12:03:49;;;;;;;;;;;23.00;42.10;;;;;;1615675;73;1748;-63
2021/01/19 12:05:51;;;;;;;;;;;23.00;42.10;;;;;;1627934;72;1931;-64
2021/01/19 12:07:53;;;;;;;;;;;23.00;42.10;;;;;;1621402;72;1110;-64
2021/01/19 12:09:55;;;;;;;;;;;23.00;42.10;;;;;;1626903;72;765;-63
2021/01/19 12:11:57;;;;;;;;;;;23.00;42.10;;;;;;1628219;72;824;-61
2021/01/19 12:13:59;;;;;;;;;;;22.90;42.10;;;;;;1628224;72;687;-65